Arcola, Indiana
Current Conditions -  °F | °C
As of 7:39 AM on Saturday 01 Nov 2014 (Local Time) from KFWA Reporting Station
Scattered Clouds Scattered Clouds  
Wind Chill: 19°   Ceiling: Unl
Heat Index: 31°   Visibility: 10mi
Dew Point: 23°   Wind: 18mph
Humidity: 72%   Direction: 360°N
Pressure: 30.28"   Gusts: 26mph
Location:  41.1°N, 85.29°W
Report Text: KFWA 011139Z 36016G23KT 10SM SCT028 M01/M05 A3028 RMK AO2 PK WND 01026/1108 T10061050
Loading
Personal Weather Stations






























Interactive Weather Map
Tropical Storm Tracking
New forecast layout! Learn more

10-Day Weather Forecast

Advertisements
Track Severe Weather on mobile